Terminal Aerodrome Forecast
Issued by NWS

Home | Current Version | Previous Version | Graphics & Text | Print | Product List | Glossary On
Versions: 1 2 3 4 5 6 7 8 9 10 11 12 13 14 15 16 17 18 19 20 21 22 23 24 25 26 27 28
939
FTUS45 KGGW 242049 AAB
TAFGDV
TAF AMD
KGDV 242049Z 2421/2518 34015G24KT P6SM FEW130
     FM250200 36007KT P6SM SCT110
     FM250600 02008KT P6SM VCTS BKN100CB
     FM251200 35008KT P6SM FEW100=

USA.gov is the U.S. government's official web portal to all federal, state and local government web resources and services.